createdAt,value
2022-09-11T00:00:13.899Z,1014.90
2022-09-11T00:01:14.106Z,1014.90
2022-09-11T00:02:14.362Z,1014.93
2022-09-11T00:03:14.476Z,1014.93
2022-09-11T00:04:14.632Z,1014.91
2022-09-11T00:05:14.788Z,1014.94
2022-09-11T00:06:20.525Z,1014.97
2022-09-11T00:07:16.129Z,1014.97
2022-09-11T00:08:15.329Z,1014.98
2022-09-11T00:09:15.499Z,1015.00
2022-09-11T00:10:15.679Z,1014.99
2022-09-11T00:11:15.830Z,1015.03
2022-09-11T00:12:16.029Z,1015.02
2022-09-11T00:13:16.200Z,1015.03
2022-09-11T00:14:16.363Z,1015.04
2022-09-11T00:15:16.518Z,1015.00
2022-09-11T00:16:16.746Z,1015.01
2022-09-11T00:17:16.859Z,1015.03
2022-09-11T00:18:17.029Z,1015.05
2022-09-11T00:19:17.195Z,1015.07
2022-09-11T00:20:17.349Z,1015.07
2022-09-11T00:21:17.510Z,1015.06
2022-09-11T00:22:17.671Z,1015.05
2022-09-11T00:23:17.839Z,1015.06
2022-09-11T00:24:18.000Z,1015.07
2022-09-11T00:25:18.163Z,1015.06
2022-09-11T00:26:18.319Z,1015.09
2022-09-11T00:27:18.479Z,1015.07
2022-09-11T00:28:18.659Z,1015.05
2022-09-11T00:29:18.818Z,1015.13
2022-09-11T00:30:19.009Z,1015.06
2022-09-11T00:31:19.191Z,1015.12
2022-09-11T00:32:19.359Z,1015.10
2022-09-11T00:33:19.562Z,1015.11
2022-09-11T00:34:19.697Z,1015.15
2022-09-11T00:35:19.863Z,1015.13
2022-09-11T00:36:20.020Z,1015.10
2022-09-11T00:37:20.182Z,1015.11
2022-09-11T00:38:20.360Z,1015.12
2022-09-11T00:39:20.528Z,1015.12
2022-09-11T00:40:20.692Z,1015.09
2022-09-11T00:41:20.849Z,1015.13
2022-09-11T00:42:21.051Z,1015.14
2022-09-11T00:43:21.239Z,1015.11
2022-09-11T00:44:21.400Z,1015.14
2022-09-11T00:45:21.562Z,1015.15
2022-09-11T00:46:21.731Z,1015.16
2022-09-11T00:47:21.888Z,1015.17
2022-09-11T00:48:22.073Z,1015.19
2022-09-11T00:49:22.230Z,1015.15
2022-09-11T00:50:22.421Z,1015.18
2022-09-11T00:51:22.582Z,1015.15
2022-09-11T00:52:22.782Z,1015.11
2022-09-11T00:53:22.950Z,1015.12
2022-09-11T00:54:23.118Z,1015.12
2022-09-11T00:55:23.270Z,1015.12
2022-09-11T00:56:23.430Z,1015.13
2022-09-11T00:57:23.591Z,1015.13
2022-09-11T00:58:23.774Z,1015.13
2022-09-11T00:59:23.937Z,1015.13
2022-09-11T01:00:24.093Z,1015.14
2022-09-11T01:01:24.258Z,1015.12
2022-09-11T01:02:27.436Z,1015.15
2022-09-11T01:03:24.590Z,1015.14
2022-09-11T01:04:24.773Z,1015.14
2022-09-11T01:05:24.937Z,1015.14
2022-09-11T01:06:25.092Z,1015.12
2022-09-11T01:07:25.250Z,1015.15
2022-09-11T01:08:25.431Z,1015.12
2022-09-11T01:09:25.600Z,1015.14
2022-09-11T01:10:25.768Z,1015.17
2022-09-11T01:11:25.926Z,1015.17
2022-09-11T01:12:26.080Z,1015.23
2022-09-11T01:13:26.270Z,1015.22
2022-09-11T01:14:26.431Z,1015.24
2022-09-11T01:15:26.592Z,1015.22
2022-09-11T01:16:26.788Z,1015.26
2022-09-11T01:17:26.920Z,1015.18
2022-09-11T01:18:27.140Z,1015.21
2022-09-11T01:19:27.300Z,1015.23
2022-09-11T01:20:27.461Z,1015.24
2022-09-11T01:21:31.266Z,1015.24
2022-09-11T01:22:28.800Z,1015.19
2022-09-11T01:23:28.000Z,1015.22
2022-09-11T01:24:28.171Z,1015.23
2022-09-11T01:25:28.332Z,1015.18
2022-09-11T01:26:28.520Z,1015.22
2022-09-11T01:27:28.671Z,1015.21
2022-09-11T01:28:28.881Z,1015.20
2022-09-11T01:29:29.041Z,1015.23
2022-09-11T01:30:29.250Z,1015.22
2022-09-11T01:31:29.442Z,1015.19
2022-09-11T01:32:29.563Z,1015.19
2022-09-11T01:33:29.739Z,1015.21
2022-09-11T01:34:29.891Z,1015.18
2022-09-11T01:35:30.051Z,1015.23
2022-09-11T01:36:30.211Z,1015.19
2022-09-11T01:37:30.371Z,1015.20
2022-09-11T01:38:30.582Z,1015.22
2022-09-11T01:39:30.745Z,1015.21
2022-09-11T01:40:30.931Z,1015.24
2022-09-11T01:41:31.090Z,1015.25
2022-09-11T01:42:31.283Z,1015.25
2022-09-11T01:43:31.461Z,1015.24
2022-09-11T01:44:31.622Z,1015.23
2022-09-11T01:45:31.810Z,1015.23
2022-09-11T01:46:31.971Z,1015.23
2022-09-11T01:47:32.140Z,1015.24
2022-09-11T01:48:32.312Z,1015.22
2022-09-11T01:49:32.472Z,1015.22
2022-09-11T01:50:32.661Z,1015.20
2022-09-11T01:51:32.811Z,1015.25
2022-09-11T01:52:32.983Z,1015.24
2022-09-11T01:53:33.200Z,1015.23
2022-09-11T01:54:33.322Z,1015.26
2022-09-11T01:55:33.481Z,1015.24
2022-09-11T01:56:33.652Z,1015.25
2022-09-11T01:57:33.811Z,1015.28
2022-09-11T01:58:33.992Z,1015.27
2022-09-11T01:59:34.151Z,1015.25
2022-09-11T02:00:34.386Z,1015.28
2022-09-11T02:01:34.492Z,1015.27
2022-09-11T02:02:34.663Z,1015.25
2022-09-11T02:03:34.832Z,1015.26
2022-09-11T02:04:35.008Z,1015.27
2022-09-11T02:05:35.161Z,1015.30
2022-09-11T02:06:35.322Z,1015.27
2022-09-11T02:07:35.482Z,1015.30
2022-09-11T02:08:35.662Z,1015.29
2022-09-11T02:09:35.824Z,1015.28
2022-09-11T02:10:35.982Z,1015.30
2022-09-11T02:11:36.145Z,1015.29
2022-09-11T02:12:36.342Z,1015.29
2022-09-11T02:13:36.532Z,1015.26
2022-09-11T02:14:36.693Z,1015.24
2022-09-11T02:15:36.851Z,1015.26
2022-09-11T02:16:37.097Z,1015.27
2022-09-11T02:17:37.202Z,1015.27
2022-09-11T02:18:37.382Z,1015.30
2022-09-11T02:19:37.542Z,1015.30
2022-09-11T02:20:37.740Z,1015.32
2022-09-11T02:21:37.898Z,1015.29
2022-09-11T02:22:38.081Z,1015.31
2022-09-11T02:23:38.305Z,1015.32
2022-09-11T02:24:38.411Z,1015.32
2022-09-11T02:25:38.572Z,1015.31
2022-09-11T02:26:38.772Z,1015.33
2022-09-11T02:27:38.942Z,1015.34
2022-09-11T02:28:39.110Z,1015.31
2022-09-11T02:29:39.262Z,1015.33
2022-09-11T02:30:39.462Z,1015.31
2022-09-11T02:31:39.660Z,1015.32
2022-09-11T02:32:39.812Z,1015.34
2022-09-11T02:33:40.003Z,1015.33
2022-09-11T02:34:40.132Z,1015.33
2022-09-11T02:35:40.303Z,1015.32
2022-09-11T02:36:40.471Z,1015.36
2022-09-11T02:37:40.643Z,1015.36
2022-09-11T02:38:40.813Z,1015.35
2022-09-11T02:39:41.005Z,1015.38
2022-09-11T02:40:41.149Z,1015.42
2022-09-11T02:41:41.293Z,1015.43
2022-09-11T02:42:41.561Z,1015.42
2022-09-11T02:43:41.746Z,1015.39
2022-09-11T02:44:41.823Z,1015.43
2022-09-11T02:45:42.025Z,1015.45
2022-09-11T02:46:42.153Z,1015.44
2022-09-11T02:47:42.322Z,1015.42
2022-09-11T02:48:42.493Z,1015.43
2022-09-11T02:49:42.650Z,1015.46
2022-09-11T02:50:42.842Z,1015.46
2022-09-11T02:51:43.002Z,1015.46
2022-09-11T02:52:43.183Z,1015.48
2022-09-11T02:53:43.491Z,1015.52
2022-09-11T02:54:43.533Z,1015.48
2022-09-11T02:55:43.692Z,1015.48
2022-09-11T02:56:43.892Z,1015.47
2022-09-11T02:57:44.128Z,1015.47
2022-09-11T02:58:44.243Z,1015.48
2022-09-11T02:59:44.403Z,1015.53
2022-09-11T03:00:44.595Z,1015.53
2022-09-11T03:01:44.758Z,1015.55
2022-09-11T03:02:44.923Z,1015.58
2022-09-11T03:03:46.091Z,1015.59
2022-09-11T03:04:45.274Z,1015.56
2022-09-11T03:05:45.432Z,1015.57
2022-09-11T03:06:45.593Z,1015.58
2022-09-11T03:07:45.776Z,1015.56
2022-09-11T03:08:45.934Z,1015.55
2022-09-11T03:09:46.092Z,1015.56
2022-09-11T03:10:46.263Z,1015.59
2022-09-11T03:11:46.421Z,1015.60
2022-09-11T03:12:46.593Z,1015.61
2022-09-11T03:13:46.753Z,1015.63
2022-09-11T03:14:46.943Z,1015.61
2022-09-11T03:15:47.103Z,1015.63
2022-09-11T03:16:47.304Z,1015.61
2022-09-11T03:17:47.482Z,1015.61
2022-09-11T03:18:47.644Z,1015.61
2022-09-11T03:19:47.803Z,1015.62
2022-09-11T03:20:47.971Z,1015.63
2022-09-11T03:21:48.124Z,1015.66
2022-09-11T03:22:48.333Z,1015.69
2022-09-11T03:23:48.542Z,1015.70
2022-09-11T03:24:48.672Z,1015.70
2022-09-11T03:25:48.824Z,1015.73
2022-09-11T03:26:48.994Z,1015.72
2022-09-11T03:27:49.193Z,1015.74
2022-09-11T03:28:49.324Z,1015.76
2022-09-11T03:29:49.492Z,1015.78
2022-09-11T03:30:49.658Z,1015.82
2022-09-11T03:31:49.854Z,1015.83
2022-09-11T03:32:49.991Z,1015.87
2022-09-11T03:33:50.153Z,1015.87
2022-09-11T03:34:50.324Z,1015.90
2022-09-11T03:35:50.483Z,1015.94
2022-09-11T03:36:50.673Z,1015.97
2022-09-11T03:37:50.846Z,1015.96
2022-09-11T03:38:51.004Z,1015.99
2022-09-11T03:39:51.177Z,1015.99
2022-09-11T03:40:51.323Z,1016.02
2022-09-11T03:41:51.485Z,1016.05
2022-09-11T03:42:51.665Z,1016.06
2022-09-11T03:43:51.824Z,1016.04
2022-09-11T03:44:51.983Z,1016.06
2022-09-11T03:45:52.177Z,1016.03
2022-09-11T03:46:52.343Z,1016.07
2022-09-11T03:47:52.524Z,1016.08
2022-09-11T03:48:52.715Z,1016.09
2022-09-11T03:49:52.864Z,1016.12
2022-09-11T03:50:53.072Z,1016.10
2022-09-11T03:51:53.233Z,1016.09
2022-09-11T03:52:53.424Z,1016.13
2022-09-11T03:53:53.544Z,1016.12
2022-09-11T03:54:53.734Z,1016.11
2022-09-11T03:55:53.903Z,1016.15
2022-09-11T03:56:54.064Z,1016.17
2022-09-11T03:57:54.223Z,1016.18
2022-09-11T03:58:54.392Z,1016.19
2022-09-11T03:59:54.544Z,1016.20
2022-09-11T04:00:54.769Z,1016.21
2022-09-11T04:01:54.984Z,1016.23
2022-09-11T04:02:55.103Z,1016.29
2022-09-11T04:03:55.265Z,1016.28
2022-09-11T04:04:55.472Z,1016.24
2022-09-11T04:05:55.624Z,1016.27
2022-09-11T04:06:55.788Z,1016.25
2022-09-11T04:07:55.963Z,1016.27
2022-09-11T04:08:56.134Z,1016.26
2022-09-11T04:09:56.296Z,1016.24
2022-09-11T04:10:56.455Z,1016.29
2022-09-11T04:11:56.614Z,1016.30
2022-09-11T04:12:56.803Z,1016.25
2022-09-11T04:13:56.954Z,1016.33
2022-09-11T04:14:57.155Z,1016.27
2022-09-11T04:15:57.304Z,1016.26
2022-09-11T04:16:57.501Z,1016.28
2022-09-11T04:18:00.083Z,1016.28
2022-09-11T04:18:58.875Z,1016.33
2022-09-11T04:19:58.015Z,1016.27
2022-09-11T04:20:58.175Z,1016.28
2022-09-11T04:21:58.351Z,1016.30
2022-09-11T04:22:58.537Z,1016.29
2022-09-11T04:23:58.694Z,1016.31
2022-09-11T04:24:58.884Z,1016.33
2022-09-11T04:25:59.065Z,1016.31
2022-09-11T04:27:00.853Z,1016.32
2022-09-11T04:27:59.442Z,1016.35
2022-09-11T04:28:59.584Z,1016.43
2022-09-11T04:29:59.777Z,1016.37
2022-09-11T04:30:59.948Z,1016.42
2022-09-11T04:32:00.129Z,1016.38
2022-09-11T04:33:00.314Z,1016.44
2022-09-11T04:34:00.469Z,1016.43
2022-09-11T04:35:00.644Z,1016.46
2022-09-11T04:36:00.825Z,1016.47
2022-09-11T04:37:01.004Z,1016.45
2022-09-11T04:38:01.197Z,1016.49
2022-09-11T04:39:01.374Z,1016.49
2022-09-11T04:40:01.633Z,1016.48
2022-09-11T04:41:01.736Z,1016.50
2022-09-11T04:42:01.927Z,1016.55
2022-09-11T04:43:02.098Z,1016.52
2022-09-11T04:44:05.214Z,1016.49
2022-09-11T04:45:02.452Z,1016.50
2022-09-11T04:46:02.656Z,1016.50
2022-09-11T04:47:02.798Z,1016.50
2022-09-11T04:48:02.974Z,1016.54
2022-09-11T04:49:03.115Z,1016.54
2022-09-11T04:50:03.299Z,1016.51
2022-09-11T04:51:03.424Z,1016.55
2022-09-11T04:52:03.605Z,1016.60
2022-09-11T04:53:03.815Z,1016.63
2022-09-11T04:54:03.965Z,1016.62
2022-09-11T04:55:04.114Z,1016.61
2022-09-11T04:56:04.294Z,1016.61
2022-09-11T04:57:04.484Z,1016.60
2022-09-11T04:58:04.705Z,1016.61
2022-09-11T04:59:04.864Z,1016.66
2022-09-11T05:00:05.022Z,1016.61
2022-09-11T05:01:05.242Z,1016.61
2022-09-11T05:02:05.399Z,1016.61
2022-09-11T05:03:05.574Z,1016.62
2022-09-11T05:04:05.753Z,1016.65
2022-09-11T05:05:05.936Z,1016.66
2022-09-11T05:06:06.127Z,1016.68
2022-09-11T05:07:06.304Z,1016.70
2022-09-11T05:08:06.495Z,1016.71
2022-09-11T05:09:06.705Z,1016.68
2022-09-11T05:10:06.886Z,1016.69
2022-09-11T05:11:07.026Z,1016.68
2022-09-11T05:12:07.207Z,1016.70
2022-09-11T05:13:07.405Z,1016.69
2022-09-11T05:14:07.586Z,1016.74
2022-09-11T05:15:07.768Z,1016.71
2022-09-11T05:16:08.002Z,1016.69
2022-09-11T05:17:08.126Z,1016.70
2022-09-11T05:18:08.334Z,1016.69
2022-09-11T05:19:08.475Z,1016.72
2022-09-11T05:20:11.782Z,1016.74
2022-09-11T05:21:08.825Z,1016.74
2022-09-11T05:22:08.989Z,1016.77
2022-09-11T05:23:09.184Z,1016.72
2022-09-11T05:24:09.345Z,1016.73
2022-09-11T05:25:09.505Z,1016.73
2022-09-11T05:26:09.675Z,1016.75
2022-09-11T05:27:09.838Z,1016.77
2022-09-11T05:28:10.035Z,1016.79
2022-09-11T05:29:10.189Z,1016.82
2022-09-11T05:30:10.368Z,1016.81
2022-09-11T05:31:10.523Z,1016.79
2022-09-11T05:32:10.718Z,1016.81
2022-09-11T05:33:10.864Z,1016.75
2022-09-11T05:34:11.049Z,1016.79
2022-09-11T05:35:11.225Z,1016.79
2022-09-11T05:36:11.416Z,1016.81
2022-09-11T05:37:11.608Z,1016.80
2022-09-11T05:38:11.756Z,1016.80
2022-09-11T05:39:11.945Z,1016.80
2022-09-11T05:40:12.155Z,1016.84
2022-09-11T05:41:12.295Z,1016.78
2022-09-11T05:42:12.496Z,1016.84
2022-09-11T05:43:12.640Z,1016.79
2022-09-11T05:44:12.825Z,1016.81
2022-09-11T05:45:12.976Z,1016.79
2022-09-11T05:46:13.157Z,1016.81
2022-09-11T05:47:13.421Z,1016.87
2022-09-11T05:48:13.525Z,1016.84
2022-09-11T05:49:13.695Z,1016.82
2022-09-11T05:50:13.875Z,1016.82
2022-09-11T05:51:14.038Z,1016.80
2022-09-11T05:52:14.236Z,1016.83
2022-09-11T05:53:14.427Z,1016.85
2022-09-11T05:54:14.567Z,1016.89
2022-09-11T05:55:14.746Z,1016.88
2022-09-11T05:56:14.927Z,1016.97
2022-09-11T05:57:15.096Z,1017.00
2022-09-11T05:58:15.267Z,1017.05
2022-09-11T05:59:15.426Z,1017.10
2022-09-11T06:00:15.618Z,1017.09
2022-09-11T06:01:15.831Z,1017.12
2022-09-11T06:02:16.031Z,1017.19
2022-09-11T06:03:16.126Z,1017.18
2022-09-11T06:04:16.318Z,1017.20
2022-09-11T06:05:16.507Z,1017.19
2022-09-11T06:06:16.704Z,1017.21
2022-09-11T06:07:16.876Z,1017.20
2022-09-11T06:08:17.036Z,1017.19
2022-09-11T06:09:17.197Z,1017.23
2022-09-11T06:10:17.356Z,1017.23
2022-09-11T06:11:17.547Z,1017.25
2022-09-11T06:12:17.719Z,1017.29
2022-09-11T06:13:17.899Z,1017.25
2022-09-11T06:14:18.047Z,1017.26
2022-09-11T06:15:42.807Z,1017.24
2022-09-11T06:16:19.419Z,1017.25
2022-09-11T06:17:18.555Z,1017.28
2022-09-11T06:18:18.715Z,1017.27
2022-09-11T06:19:18.867Z,1017.24
2022-09-11T06:20:19.049Z,1017.31
2022-09-11T06:21:19.217Z,1017.32
2022-09-11T06:22:19.377Z,1017.35
2022-09-11T06:23:19.537Z,1017.33
2022-09-11T06:24:19.700Z,1017.34
2022-09-11T06:25:19.855Z,1017.35
2022-09-11T06:26:20.060Z,1017.38
2022-09-11T06:27:20.220Z,1017.38
2022-09-11T06:28:20.408Z,1017.36
2022-09-11T06:29:20.568Z,1017.40
2022-09-11T06:30:20.799Z,1017.41
2022-09-11T06:31:20.937Z,1017.46
2022-09-11T06:32:21.103Z,1017.45
2022-09-11T06:33:21.288Z,1017.50
2022-09-11T06:34:21.481Z,1017.49
2022-09-11T06:35:21.638Z,1017.54
2022-09-11T06:36:21.838Z,1017.53
2022-09-11T06:37:21.996Z,1017.58
2022-09-11T06:38:22.192Z,1017.56
2022-09-11T06:39:22.338Z,1017.61
2022-09-11T06:40:22.528Z,1017.62
2022-09-11T06:41:22.741Z,1017.59
2022-09-11T06:42:22.898Z,1017.59
2022-09-11T06:43:23.059Z,1017.60
2022-09-11T06:44:23.218Z,1017.61
2022-09-11T06:45:23.379Z,1017.62
2022-09-11T06:46:23.558Z,1017.58
2022-09-11T06:47:23.716Z,1017.60
2022-09-11T06:48:23.878Z,1017.58
2022-09-11T06:49:24.039Z,1017.54
2022-09-11T06:50:24.226Z,1017.56
2022-09-11T06:51:24.398Z,1017.56
2022-09-11T06:52:24.561Z,1017.52
2022-09-11T06:53:24.719Z,1017.52
2022-09-11T06:54:24.879Z,1017.48
2022-09-11T06:55:25.037Z,1017.49
2022-09-11T06:56:25.211Z,1017.49
2022-09-11T06:57:25.359Z,1017.49
2022-09-11T06:58:25.551Z,1017.50
2022-09-11T06:59:25.709Z,1017.54
2022-09-11T07:00:25.922Z,1017.50
2022-09-11T07:01:26.203Z,1017.56
2022-09-11T07:02:26.226Z,1017.50
2022-09-11T07:03:26.391Z,1017.52
2022-09-11T07:04:26.549Z,1017.49
2022-09-11T07:05:26.713Z,1017.47
2022-09-11T07:06:26.920Z,1017.48
2022-09-11T07:07:27.069Z,1017.51
2022-09-11T07:08:27.271Z,1017.49
2022-09-11T07:09:27.429Z,1017.56
2022-09-11T07:10:27.621Z,1017.55
2022-09-11T07:11:27.796Z,1017.56
2022-09-11T07:12:27.958Z,1017.56
2022-09-11T07:13:28.120Z,1017.62
2022-09-11T07:14:28.280Z,1017.66
2022-09-11T07:15:28.439Z,1017.63
2022-09-11T07:16:28.669Z,1017.60
2022-09-11T07:17:28.782Z,1017.58
2022-09-11T07:18:28.940Z,1017.64
2022-09-11T07:19:29.130Z,1017.62
2022-09-11T07:20:29.304Z,1017.65
2022-09-11T07:21:29.470Z,1017.63
2022-09-11T07:22:29.634Z,1017.61
2022-09-11T07:23:29.791Z,1017.64
2022-09-11T07:24:29.981Z,1017.66
2022-09-11T07:25:30.141Z,1017.67
2022-09-11T07:26:30.321Z,1017.62
2022-09-11T07:27:30.480Z,1017.64
2022-09-11T07:28:30.675Z,1017.63
2022-09-11T07:29:30.861Z,1017.66
2022-09-11T07:30:31.077Z,1017.67
2022-09-11T07:31:31.192Z,1017.69
2022-09-11T07:32:31.371Z,1017.67
2022-09-11T07:33:31.552Z,1017.68
2022-09-11T07:34:31.741Z,1017.69
2022-09-11T07:35:31.900Z,1017.65
2022-09-11T07:36:32.093Z,1017.68
2022-09-11T07:37:32.241Z,1017.71
2022-09-11T07:38:32.439Z,1017.72
2022-09-11T07:39:32.622Z,1017.71
2022-09-11T07:40:32.778Z,1017.77
2022-09-11T07:41:32.921Z,1017.72
2022-09-11T07:42:33.102Z,1017.74
2022-09-11T07:43:33.297Z,1017.71
2022-09-11T07:44:33.462Z,1017.73
2022-09-11T07:45:33.686Z,1017.76
2022-09-11T07:46:33.812Z,1017.77
2022-09-11T07:47:33.994Z,1017.79
2022-09-11T07:48:34.193Z,1017.79
2022-09-11T07:49:34.363Z,1017.80
2022-09-11T07:50:34.561Z,1017.81
2022-09-11T07:51:34.702Z,1017.82
2022-09-11T07:52:34.892Z,1017.80
2022-09-11T07:53:35.052Z,1017.79
2022-09-11T07:54:35.232Z,1017.87
2022-09-11T07:55:35.422Z,1017.88
2022-09-11T07:56:35.595Z,1017.83
2022-09-11T07:57:35.732Z,1017.87
2022-09-11T07:58:35.923Z,1017.83
2022-09-11T07:59:36.083Z,1017.88
2022-09-11T08:00:37.203Z,1017.85
2022-09-11T08:01:36.496Z,1017.82
2022-09-11T08:02:36.651Z,1017.85
2022-09-11T08:03:36.793Z,1017.86
2022-09-11T08:04:36.963Z,1017.85
2022-09-11T08:05:37.153Z,1017.84
2022-09-11T08:06:37.333Z,1017.82
2022-09-11T08:07:37.493Z,1017.83
2022-09-11T08:08:37.683Z,1017.78
2022-09-11T08:09:37.862Z,1017.81
2022-09-11T08:10:38.055Z,1017.81
2022-09-11T08:11:38.223Z,1017.83
2022-09-11T08:12:38.392Z,1017.83
2022-09-11T08:13:38.590Z,1017.88
2022-09-11T08:14:38.746Z,1017.86
2022-09-11T08:15:38.933Z,1017.93
2022-09-11T08:16:39.135Z,1017.92
2022-09-11T08:17:39.283Z,1017.89
2022-09-11T08:18:39.445Z,1017.89
2022-09-11T08:19:39.645Z,1017.87
2022-09-11T08:20:39.806Z,1017.86
2022-09-11T08:21:39.952Z,1017.87
2022-09-11T08:22:40.115Z,1017.87
2022-09-11T08:23:40.285Z,1017.90
2022-09-11T08:24:40.471Z,1017.91
2022-09-11T08:25:40.606Z,1017.92
2022-09-11T08:26:40.793Z,1017.90
2022-09-11T08:27:40.945Z,1017.94
2022-09-11T08:28:41.107Z,1017.93
2022-09-11T08:29:41.287Z,1018.00
2022-09-11T08:30:41.436Z,1017.98
2022-09-11T08:31:41.617Z,1017.98
2022-09-11T08:32:41.777Z,1018.01
2022-09-11T08:33:42.167Z,1018.02
2022-09-11T08:34:42.158Z,1018.01
2022-09-11T08:35:42.309Z,1018.01
2022-09-11T08:36:42.487Z,1018.03
2022-09-11T08:37:42.668Z,1018.08
2022-09-11T08:38:42.848Z,1018.07
2022-09-11T08:39:43.107Z,1018.06
2022-09-11T08:40:43.207Z,1018.09
2022-09-11T08:41:43.387Z,1018.10
2022-09-11T08:42:43.566Z,1018.09
2022-09-11T08:43:43.871Z,1018.10
2022-09-11T08:44:43.918Z,1018.09
2022-09-11T08:45:44.107Z,1018.10
2022-09-11T08:46:44.238Z,1018.13
2022-09-11T08:47:44.397Z,1018.11
2022-09-11T08:48:44.555Z,1018.11
2022-09-11T08:49:44.749Z,1018.14
2022-09-11T08:50:44.900Z,1018.12
2022-09-11T08:51:45.078Z,1018.14
2022-09-11T08:52:45.258Z,1018.08
2022-09-11T08:53:45.449Z,1018.02
2022-09-11T08:54:45.619Z,1018.06
2022-09-11T08:55:45.775Z,1018.03
2022-09-11T08:56:45.949Z,1018.02
2022-09-11T08:57:46.119Z,1018.06
2022-09-11T08:58:46.289Z,1018.15
2022-09-11T08:59:46.470Z,1018.15
2022-09-11T09:00:46.641Z,1018.12
2022-09-11T09:01:46.872Z,1018.15
2022-09-11T09:02:47.003Z,1018.16
2022-09-11T09:03:47.179Z,1018.17
2022-09-11T09:04:47.369Z,1018.11
2022-09-11T09:05:47.520Z,1018.15
2022-09-11T09:06:47.700Z,1018.10
2022-09-11T09:07:47.860Z,1018.09
2022-09-11T09:08:48.040Z,1018.10
2022-09-11T09:09:48.242Z,1018.00
2022-09-11T09:10:48.381Z,1018.04
2022-09-11T09:11:48.575Z,1018.00
2022-09-11T09:12:48.751Z,1018.10
2022-09-11T09:13:48.939Z,1018.07
2022-09-11T09:14:49.121Z,1018.11
2022-09-11T09:15:49.313Z,1018.11
2022-09-11T09:16:49.433Z,1018.09
2022-09-11T09:17:49.633Z,1018.14
2022-09-11T09:18:49.813Z,1018.17
2022-09-11T09:19:50.014Z,1018.19
2022-09-11T09:20:50.153Z,1018.19
2022-09-11T09:21:50.323Z,1018.21
2022-09-11T09:22:50.513Z,1018.17
2022-09-11T09:23:50.693Z,1018.20
2022-09-11T09:24:50.885Z,1018.12
2022-09-11T09:25:51.052Z,1018.18
2022-09-11T09:26:51.224Z,1018.21
2022-09-11T09:27:51.405Z,1018.18
2022-09-11T09:28:51.574Z,1018.15
2022-09-11T09:29:51.774Z,1018.18
2022-09-11T09:30:51.938Z,1018.15
2022-09-11T09:31:52.105Z,1018.15
2022-09-11T09:32:52.275Z,1018.11
2022-09-11T09:33:52.483Z,1018.13
2022-09-11T09:34:52.635Z,1018.11
2022-09-11T09:35:52.806Z,1018.16
2022-09-11T09:36:52.964Z,1018.16
2022-09-11T09:37:53.135Z,1018.12
2022-09-11T09:38:53.295Z,1018.07
2022-09-11T09:39:53.507Z,1018.16
2022-09-11T09:40:53.646Z,1018.14
2022-09-11T09:41:53.836Z,1018.26
2022-09-11T09:42:54.015Z,1018.08
2022-09-11T09:43:54.176Z,1018.10
2022-09-11T09:44:54.367Z,1018.04
2022-09-11T09:45:54.563Z,1018.18
2022-09-11T09:46:54.696Z,1018.12
2022-09-11T09:47:54.867Z,1018.10
2022-09-11T09:48:55.046Z,1018.06
2022-09-11T09:49:55.230Z,1018.05
2022-09-11T09:50:55.408Z,1018.05
2022-09-11T09:51:55.549Z,1018.10
2022-09-11T09:52:55.720Z,1017.99
2022-09-11T09:53:55.899Z,1018.04
2022-09-11T09:54:56.079Z,1018.04
2022-09-11T09:55:56.239Z,1018.09
2022-09-11T09:56:56.409Z,1018.13
2022-09-11T09:57:56.599Z,1018.10
2022-09-11T09:58:56.770Z,1018.16
2022-09-11T09:59:56.951Z,1018.13
2022-09-11T10:00:57.110Z,1018.15
2022-09-11T10:01:57.424Z,1018.17
2022-09-11T10:02:57.460Z,1018.14
2022-09-11T10:03:57.651Z,1018.19
2022-09-11T10:04:57.830Z,1018.19
2022-09-11T10:05:58.023Z,1018.15
2022-09-11T10:06:58.191Z,1018.17
2022-09-11T10:07:58.383Z,1018.08
2022-09-11T10:09:02.794Z,1018.13
2022-09-11T10:09:59.739Z,1018.10
2022-09-11T10:10:58.897Z,1018.08
2022-09-11T10:11:59.060Z,1018.11
2022-09-11T10:13:17.504Z,1018.15
2022-09-11T10:14:00.381Z,1018.11
2022-09-11T10:14:59.572Z,1018.11
2022-09-11T10:15:59.788Z,1018.09
2022-09-11T10:16:59.902Z,1018.09
2022-09-11T10:18:00.089Z,1018.17
2022-09-11T10:19:00.262Z,1018.12
2022-09-11T10:20:00.463Z,1018.18
2022-09-11T10:21:01.592Z,1018.18
2022-09-11T10:22:00.804Z,1018.22
2022-09-11T10:23:00.983Z,1018.20
2022-09-11T10:24:01.165Z,1018.25
2022-09-11T10:25:01.333Z,1018.23
2022-09-11T10:26:01.494Z,1018.27
2022-09-11T10:27:01.654Z,1018.25
2022-09-11T10:28:01.833Z,1018.23
2022-09-11T10:29:01.999Z,1018.19
2022-09-11T10:30:02.181Z,1018.21
2022-09-11T10:31:02.408Z,1018.19
2022-09-11T10:32:02.597Z,1018.16
2022-09-11T10:33:03.699Z,1018.17
2022-09-11T10:34:02.874Z,1018.21
2022-09-11T10:35:03.059Z,1018.25
2022-09-11T10:36:03.250Z,1018.24
2022-09-11T10:37:03.395Z,1018.23
2022-09-11T10:38:03.585Z,1018.20
2022-09-11T10:39:03.754Z,1018.24
2022-09-11T10:40:04.007Z,1018.19
2022-09-11T10:41:04.075Z,1018.17
2022-09-11T10:42:04.247Z,1018.21
2022-09-11T10:43:04.406Z,1018.24
2022-09-11T10:44:04.577Z,1018.23
2022-09-11T10:45:04.757Z,1018.24
2022-09-11T10:46:04.988Z,1018.24
2022-09-11T10:47:05.094Z,1018.28
2022-09-11T10:48:05.257Z,1018.28
2022-09-11T10:49:05.431Z,1018.28
2022-09-11T10:50:05.608Z,1018.28
2022-09-11T10:51:05.767Z,1018.29
2022-09-11T10:52:05.936Z,1018.30
2022-09-11T10:53:06.105Z,1018.28
2022-09-11T10:54:06.278Z,1018.29
2022-09-11T10:55:06.458Z,1018.33
2022-09-11T10:56:06.616Z,1018.32
2022-09-11T10:57:06.842Z,1018.33
2022-09-11T10:58:06.950Z,1018.31
2022-09-11T10:59:07.109Z,1018.33
2022-09-11T11:00:07.289Z,1018.31
2022-09-11T11:01:07.484Z,1018.32
2022-09-11T11:02:07.624Z,1018.35
2022-09-11T11:03:07.788Z,1018.29
2022-09-11T11:04:12.110Z,1018.33
2022-09-11T11:05:08.151Z,1018.31
2022-09-11T11:06:08.308Z,1018.36
2022-09-11T11:07:08.482Z,1018.32
2022-09-11T11:08:08.660Z,1018.30
2022-09-11T11:09:08.840Z,1018.33
2022-09-11T11:10:09.030Z,1018.33
2022-09-11T11:11:09.178Z,1018.31
2022-09-11T11:12:09.362Z,1018.28
2022-09-11T11:13:09.532Z,1018.29
2022-09-11T11:14:09.718Z,1018.25
2022-09-11T11:15:09.912Z,1018.23
2022-09-11T11:16:10.072Z,1018.27
2022-09-11T11:17:10.231Z,1018.28
2022-09-11T11:18:10.412Z,1018.24
2022-09-11T11:19:10.595Z,1018.27
2022-09-11T11:20:10.807Z,1018.28
2022-09-11T11:21:10.941Z,1018.25
2022-09-11T11:22:11.122Z,1018.25
2022-09-11T11:23:14.585Z,1018.26
2022-09-11T11:24:12.512Z,1018.25
2022-09-11T11:25:11.671Z,1018.29
2022-09-11T11:26:11.863Z,1018.24
2022-09-11T11:27:12.043Z,1018.28
2022-09-11T11:28:12.223Z,1018.20
2022-09-11T11:29:12.402Z,1018.23
2022-09-11T11:30:12.645Z,1018.20
2022-09-11T11:31:12.759Z,1018.21
2022-09-11T11:32:12.900Z,1018.19
2022-09-11T11:33:13.073Z,1018.19
2022-09-11T11:34:13.266Z,1018.19
2022-09-11T11:35:13.406Z,1018.19
2022-09-11T11:36:13.578Z,1018.17
2022-09-11T11:37:13.753Z,1018.18
2022-09-11T11:38:13.904Z,1018.17
2022-09-11T11:39:14.074Z,1018.18
2022-09-11T11:40:14.297Z,1018.14
2022-09-11T11:41:14.385Z,1018.17
2022-09-11T11:42:14.574Z,1018.19
2022-09-11T11:43:14.742Z,1018.17
2022-09-11T11:44:14.926Z,1018.13
2022-09-11T11:45:15.064Z,1018.16
2022-09-11T11:46:15.288Z,1018.17
2022-09-11T11:47:15.416Z,1018.18
2022-09-11T11:48:15.606Z,1018.16
2022-09-11T11:49:15.804Z,1018.12
2022-09-11T11:50:15.953Z,1018.14
2022-09-11T11:51:16.126Z,1018.15
2022-09-11T11:52:16.316Z,1018.14
2022-09-11T11:53:16.501Z,1018.17
2022-09-11T11:54:16.696Z,1018.16
2022-09-11T11:55:16.853Z,1018.12
2022-09-11T11:56:17.027Z,1018.15
2022-09-11T11:57:17.208Z,1018.11
2022-09-11T11:58:17.397Z,1018.19
2022-09-11T11:59:17.597Z,1018.24
2022-09-11T12:00:17.767Z,1018.23
2022-09-11T12:01:17.959Z,1018.19
2022-09-11T12:02:18.189Z,1018.20
2022-09-11T12:03:18.384Z,1018.20
2022-09-11T12:04:18.498Z,1018.27
2022-09-11T12:05:18.648Z,1018.25
2022-09-11T12:06:18.828Z,1018.19
2022-09-11T12:07:19.008Z,1018.15